Terminal Aerodrome Forecast
Issued by NWS

Home | Current Version | Previous Version | Text Only | Print | Product List | Glossary On
Versions: 1 2 3 4 5 6 7 8 9 10 11 12 13 14 15 16 17 18 19 20 21 22 23 24 25 26 27 28 29 30 31 32 33 34 35 36 37 38 39 40 41 42 43 44 45 46 47 48 49 50
000
FTUS43 KMKX 240912 AAA
TAFENW
TAF AMD
KENW 240912Z 2409/2506 29008KT P6SM FEW090
     FM241600 28013KT P6SM SCT070
     FM242000 28013G21KT P6SM BKN100
     FM250000 28009KT P6SM VCSH SCT070 BKN100
     FM250300 27007KT P6SM SCT100=

USA.gov is the U.S. government's official web portal to all federal, state and local government web resources and services.